KBYG/BYG METAR and TAF weather

Enter ICAO airport designator
Station Type Date Time Source
KBYG METAR 2022/12/02 21:53 UTC NOAA

KBYG 022153Z AUTO 15007KT 10SM CLR M07/M12 A3000 RMK AO2 SLP217 T10671122


Station Type Date Time Source
KBYG Decoded METAR 2022/12/02 21:53 UTC NOAA

BUFFALO JOHNSON COUNTY AIRPORT , WY, United States (KBYG) 44-23N 106-43W 1497M
Dec 02, 2022 - 04:53 PM EST / 2022.12.02 2153 UTC
Wind: from the SSE (150 degrees) at 8 MPH (7 KT):0
Visibility: 10 mile(s):0
Sky conditions: clear
Temperature: 19.9 F (-6.7 C)
Windchill: 10 F (-12 C):1
Dew Point: 10.0 F (-12.2 C)
Relative Humidity: 64%
Pressure (altimeter): 30 in. Hg (1015 hPa)
ob: KBYG 022153Z AUTO 15007KT 10SM CLR M07/M12 A3000 RMK AO2 SLP217 T10671122
cycle: 22

Station Type Date Time Source
KBYG TAF UTC NOAA

Error!

Example: see airport list